sensor_id;sensor_type;location;lat;lon;timestamp;pressure;altitude;pressure_sealevel;temperature;humidity
74921;BME280;63483;47.384;8.860;2023-04-10T00:00:02;95033.72;;;0.57;41.15
74921;BME280;63483;47.384;8.860;2023-04-10T00:02:28;95035.72;;;0.41;40.41
74921;BME280;63483;47.384;8.860;2023-04-10T00:04:53;95028.28;;;0.12;41.01
74921;BME280;63483;47.384;8.860;2023-04-10T00:07:18;95033.66;;;-0.17;41.22
74921;BME280;63483;47.384;8.860;2023-04-10T00:09:44;95025.22;;;-0.32;41.14
74921;BME280;63483;47.384;8.860;2023-04-10T00:12:09;95024.81;;;-0.12;40.29
74921;BME280;63483;47.384;8.860;2023-04-10T00:14:35;95016.16;;;-0.37;41.14
74921;BME280;63483;47.384;8.860;2023-04-10T00:17:01;95017.81;;;-0.36;40.71
74921;BME280;63483;47.384;8.860;2023-04-10T00:19:26;95013.00;;;-0.28;40.46
74921;BME280;63483;47.384;8.860;2023-04-10T00:21:52;95018.44;;;-0.45;40.83
74921;BME280;63483;47.384;8.860;2023-04-10T00:24:17;95019.66;;;-0.64;40.35
74921;BME280;63483;47.384;8.860;2023-04-10T00:26:42;95023.88;;;-0.63;39.92
74921;BME280;63483;47.384;8.860;2023-04-10T00:29:08;95019.72;;;-0.78;40.54
74921;BME280;63483;47.384;8.860;2023-04-10T00:31:33;95007.50;;;-0.88;40.29
74921;BME280;63483;47.384;8.860;2023-04-10T00:33:58;95017.16;;;-0.78;39.91
74921;BME280;63483;47.384;8.860;2023-04-10T00:36:23;95009.75;;;-0.83;38.94
74921;BME280;63483;47.384;8.860;2023-04-10T00:38:50;95008.34;;;-0.87;38.21
74921;BME280;63483;47.384;8.860;2023-04-10T00:41:15;95007.63;;;-1.04;39.17
74921;BME280;63483;47.384;8.860;2023-04-10T00:43:41;95008.66;;;-1.06;40.03
74921;BME280;63483;47.384;8.860;2023-04-10T00:46:06;95005.00;;;-0.89;38.82
74921;BME280;63483;47.384;8.860;2023-04-10T00:48:32;95008.09;;;-0.97;38.08
74921;BME280;63483;47.384;8.860;2023-04-10T00:50:59;95012.03;;;-0.78;37.58
74921;BME280;63483;47.384;8.860;2023-04-10T00:53:25;95005.03;;;-0.51;40.50
74921;BME280;63483;47.384;8.860;2023-04-10T00:55:51;95003.81;;;-0.32;41.41
74921;BME280;63483;47.384;8.860;2023-04-10T00:58:17;95001.53;;;-0.11;40.74
74921;BME280;63483;47.384;8.860;2023-04-10T01:00:42;95014.34;;;0.15;42.50
74921;BME280;63483;47.384;8.860;2023-04-10T01:03:08;95010.41;;;0.35;44.03
74921;BME280;63483;47.384;8.860;2023-04-10T01:05:41;95009.09;;;0.16;51.19
74921;BME280;63483;47.384;8.860;2023-04-10T01:13:30;95007.50;;;-0.88;42.28
74921;BME280;63483;47.384;8.860;2023-04-10T01:16:07;95014.22;;;-1.12;42.85
74921;BME280;63483;47.384;8.860;2023-04-10T01:21:01;95014.53;;;-1.59;43.13
74921;BME280;63483;47.384;8.860;2023-04-10T01:26:30;95012.97;;;-1.61;42.97
74921;BME280;63483;47.384;8.860;2023-04-10T01:29:03;95005.38;;;-1.63;42.78
74921;BME280;63483;47.384;8.860;2023-04-10T01:31:41;95006.53;;;-1.81;43.33
74921;BME280;63483;47.384;8.860;2023-04-10T01:34:14;95002.84;;;-1.77;42.07
74921;BME280;63483;47.384;8.860;2023-04-10T01:36:54;95005.44;;;-1.77;41.78
74921;BME280;63483;47.384;8.860;2023-04-10T01:39:24;95005.94;;;-1.72;41.58
74921;BME280;63483;47.384;8.860;2023-04-10T01:41:53;94998.25;;;-1.86;41.57
74921;BME280;63483;47.384;8.860;2023-04-10T01:44:22;95006.91;;;-1.87;42.10
74921;BME280;63483;47.384;8.860;2023-04-10T01:46:51;95003.59;;;-1.90;40.54
74921;BME280;63483;47.384;8.860;2023-04-10T01:49:17;95007.28;;;-1.94;40.62
74921;BME280;63483;47.384;8.860;2023-04-10T01:51:43;95004.16;;;-1.99;40.29
74921;BME280;63483;47.384;8.860;2023-04-10T01:54:11;95000.31;;;-1.92;39.38
74921;BME280;63483;47.384;8.860;2023-04-10T01:56:37;94995.88;;;-1.75;38.40
74921;BME280;63483;47.384;8.860;2023-04-10T01:59:03;95006.03;;;-1.59;43.76
74921;BME280;63483;47.384;8.860;2023-04-10T02:01:29;95014.44;;;-1.57;53.24
74921;BME280;63483;47.384;8.860;2023-04-10T02:03:55;95001.06;;;-1.08;50.47
74921;BME280;63483;47.384;8.860;2023-04-10T02:06:31;95011.44;;;-0.69;49.80
74921;BME280;63483;47.384;8.860;2023-04-10T02:09:14;95008.75;;;-0.42;48.61
74921;BME280;63483;47.384;8.860;2023-04-10T02:11:57;95007.31;;;-0.20;48.46
74921;BME280;63483;47.384;8.860;2023-04-10T02:14:25;95013.06;;;-0.04;48.08
74921;BME280;63483;47.384;8.860;2023-04-10T02:16:54;95004.38;;;0.10;47.96
74921;BME280;63483;47.384;8.860;2023-04-10T02:19:22;95007.25;;;0.18;47.50
74921;BME280;63483;47.384;8.860;2023-04-10T02:21:50;94996.50;;;0.25;47.72
74921;BME280;63483;47.384;8.860;2023-04-10T02:24:16;95004.94;;;0.27;46.87
74921;BME280;63483;47.384;8.860;2023-04-10T02:26:49;95008.97;;;0.31;47.64
74921;BME280;63483;47.384;8.860;2023-04-10T02:29:15;95001.53;;;0.39;47.02
74921;BME280;63483;47.384;8.860;2023-04-10T02:31:41;95001.09;;;0.45;46.94
74921;BME280;63483;47.384;8.860;2023-04-10T02:34:06;94996.41;;;0.50;47.30
74921;BME280;63483;47.384;8.860;2023-04-10T02:36:32;95003.00;;;0.54;47.48
74921;BME280;63483;47.384;8.860;2023-04-10T02:38:58;95003.63;;;0.58;46.70
74921;BME280;63483;47.384;8.860;2023-04-10T02:41:23;95005.88;;;0.63;47.19
74921;BME280;63483;47.384;8.860;2023-04-10T02:43:48;95002.16;;;0.67;46.36
74921;BME280;63483;47.384;8.860;2023-04-10T02:46:14;95003.56;;;0.71;46.64
74921;BME280;63483;47.384;8.860;2023-04-10T02:48:39;95010.13;;;0.75;46.24
74921;BME280;63483;47.384;8.860;2023-04-10T02:51:05;95001.47;;;0.76;45.90
74921;BME280;63483;47.384;8.860;2023-04-10T02:53:32;95003.09;;;0.77;46.14
74921;BME280;63483;47.384;8.860;2023-04-10T02:55:58;95008.06;;;0.80;45.78
74921;BME280;63483;47.384;8.860;2023-04-10T02:58:24;95009.69;;;0.81;46.01
74921;BME280;63483;47.384;8.860;2023-04-10T03:00:50;95007.84;;;0.83;45.77
74921;BME280;63483;47.384;8.860;2023-04-10T03:03:17;95009.47;;;0.84;45.67
74921;BME280;63483;47.384;8.860;2023-04-10T03:05:43;95005.97;;;0.85;46.01
74921;BME280;63483;47.384;8.860;2023-04-10T03:08:11;95009.34;;;0.86;46.21
74921;BME280;63483;47.384;8.860;2023-04-10T03:10:37;95010.91;;;0.88;45.45
74921;BME280;63483;47.384;8.860;2023-04-10T03:13:02;95004.94;;;0.88;45.79
74921;BME280;63483;47.384;8.860;2023-04-10T03:15:28;95017.72;;;0.89;45.06
74921;BME280;63483;47.384;8.860;2023-04-10T03:17:53;95015.13;;;0.89;45.64
74921;BME280;63483;47.384;8.860;2023-04-10T03:20:18;95016.88;;;0.89;45.67
74921;BME280;63483;47.384;8.860;2023-04-10T03:22:44;95009.97;;;0.89;45.77
74921;BME280;63483;47.384;8.860;2023-04-10T03:25:09;95011.72;;;0.89;45.92
74921;BME280;63483;47.384;8.860;2023-04-10T03:27:34;95009.97;;;0.89;45.73
74921;BME280;63483;47.384;8.860;2023-04-10T03:30:00;95010.91;;;0.88;46.06
74921;BME280;63483;47.384;8.860;2023-04-10T03:32:27;95004.09;;;0.87;46.00
74921;BME280;63483;47.384;8.860;2023-04-10T03:34:55;95011.63;;;0.90;45.81
74921;BME280;63483;47.384;8.860;2023-04-10T03:37:20;95015.03;;;0.91;45.13
74921;BME280;63483;47.384;8.860;2023-04-10T03:39:45;95009.97;;;0.89;45.41
74921;BME280;63483;47.384;8.860;2023-04-10T03:42:11;95008.31;;;0.88;45.63
74921;BME280;63483;47.384;8.860;2023-04-10T03:44:37;95006.66;;;0.87;45.79
74921;BME280;63483;47.384;8.860;2023-04-10T03:47:02;95014.41;;;0.87;45.71
74921;BME280;63483;47.384;8.860;2023-04-10T03:49:27;95007.41;;;0.89;45.75
74921;BME280;63483;47.384;8.860;2023-04-10T03:51:53;95006.34;;;0.92;45.03
74921;BME280;63483;47.384;8.860;2023-04-10T03:54:18;95003.16;;;0.88;45.87
74921;BME280;63483;47.384;8.860;2023-04-10T03:56:43;94998.34;;;0.84;45.53
74921;BME280;63483;47.384;8.860;2023-04-10T03:59:09;94997.63;;;0.82;46.04
74921;BME280;63483;47.384;8.860;2023-04-10T04:01:34;95007.22;;;0.80;45.51
74921;BME280;63483;47.384;8.860;2023-04-10T04:03:59;95007.34;;;0.78;46.07
74921;BME280;63483;47.384;8.860;2023-04-10T04:06:25;95002.91;;;0.80;45.71
74921;BME280;63483;47.384;8.860;2023-04-10T04:08:51;95002.06;;;0.80;45.61
74921;BME280;63483;47.384;8.860;2023-04-10T04:11:16;95003.66;;;0.45;46.79
74921;BME280;63483;47.384;8.860;2023-04-10T04:13:42;95007.72;;;-0.14;40.89
74921;BME280;63483;47.384;8.860;2023-04-10T04:16:08;95003.72;;;-0.69;41.00
74921;BME280;63483;47.384;8.860;2023-04-10T04:18:33;94998.69;;;-1.11;42.54
74921;BME280;63483;47.384;8.860;2023-04-10T04:20:59;94992.84;;;-1.40;42.34
74921;BME280;63483;47.384;8.860;2023-04-10T04:23:24;95000.28;;;-1.50;42.01
74921;BME280;63483;47.384;8.860;2023-04-10T04:25:50;94996.63;;;-1.73;42.37
74921;BME280;63483;47.384;8.860;2023-04-10T04:28:17;94999.22;;;-1.87;42.73
74921;BME280;63483;47.384;8.860;2023-04-10T04:30:42;95000.69;;;-2.12;42.82
74921;BME280;63483;47.384;8.860;2023-04-10T04:33:08;94997.59;;;-2.32;42.83
74921;BME280;63483;47.384;8.860;2023-04-10T04:35:33;94997.97;;;-2.38;43.08
74921;BME280;63483;47.384;8.860;2023-04-10T04:37:58;95010.22;;;-2.43;42.81
74921;BME280;63483;47.384;8.860;2023-04-10T04:40:24;95000.06;;;-2.30;42.85
74921;BME280;63483;47.384;8.860;2023-04-10T04:42:49;95004.38;;;-2.31;41.98
74921;BME280;63483;47.384;8.860;2023-04-10T04:45:14;95004.09;;;-2.55;42.47
74921;BME280;63483;47.384;8.860;2023-04-10T04:47:40;94999.41;;;-2.63;42.82
74921;BME280;63483;47.384;8.860;2023-04-10T04:50:06;94999.97;;;-2.72;43.05
74921;BME280;63483;47.384;8.860;2023-04-10T04:52:31;94998.31;;;-2.73;42.23
74921;BME280;63483;47.384;8.860;2023-04-10T04:54:59;94999.03;;;-2.71;41.30
74921;BME280;63483;47.384;8.860;2023-04-10T04:57:24;95003.47;;;-2.58;40.42
74921;BME280;63483;47.384;8.860;2023-04-10T04:59:50;94998.69;;;-2.65;40.05
74921;BME280;63483;47.384;8.860;2023-04-10T05:02:15;95005.28;;;-2.75;40.95
74921;BME280;63483;47.384;8.860;2023-04-10T05:04:40;95009.00;;;-2.81;40.86
74921;BME280;63483;47.384;8.860;2023-04-10T05:07:06;95004.16;;;-2.71;41.44
74921;BME280;63483;47.384;8.860;2023-04-10T05:09:31;95006.59;;;-2.25;46.08
74921;BME280;63483;47.384;8.860;2023-04-10T05:11:56;95006.56;;;-2.39;56.31
74921;BME280;63483;47.384;8.860;2023-04-10T05:14:22;95004.75;;;-2.51;47.36
74921;BME280;63483;47.384;8.860;2023-04-10T05:16:48;95008.75;;;-2.76;46.12
74921;BME280;63483;47.384;8.860;2023-04-10T05:19:13;95006.13;;;-2.90;45.51
74921;BME280;63483;47.384;8.860;2023-04-10T05:21:39;95011.16;;;-3.03;45.99
74921;BME280;63483;47.384;8.860;2023-04-10T05:24:04;95011.84;;;-3.16;46.41
74921;BME280;63483;47.384;8.860;2023-04-10T05:26:30;95006.44;;;-3.25;45.90
74921;BME280;63483;47.384;8.860;2023-04-10T05:28:55;95011.19;;;-3.19;45.95
74921;BME280;63483;47.384;8.860;2023-04-10T05:31:20;95017.81;;;-3.15;45.33
74921;BME280;63483;47.384;8.860;2023-04-10T05:33:46;95013.53;;;-3.31;46.27
74921;BME280;63483;47.384;8.860;2023-04-10T05:36:11;95025.41;;;-3.14;45.65
74921;BME280;63483;47.384;8.860;2023-04-10T05:38:37;95016.88;;;-3.14;45.11
74921;BME280;63483;47.384;8.860;2023-04-10T05:41:02;95011.06;;;-3.32;45.99
74921;BME280;63483;47.384;8.860;2023-04-10T05:43:27;95025.94;;;-3.39;46.08
74921;BME280;63483;47.384;8.860;2023-04-10T05:45:53;95011.50;;;-3.09;45.11
74921;BME280;63483;47.384;8.860;2023-04-10T05:48:18;95021.75;;;-3.09;44.14
74921;BME280;63483;47.384;8.860;2023-04-10T05:50:43;95022.97;;;-3.01;44.06
74921;BME280;63483;47.384;8.860;2023-04-10T05:53:12;95026.13;;;-3.11;43.88
74921;BME280;63483;47.384;8.860;2023-04-10T05:55:38;95026.81;;;-2.93;44.90
74921;BME280;63483;47.384;8.860;2023-04-10T05:58:03;95031.38;;;-2.68;43.00
74921;BME280;63483;47.384;8.860;2023-04-10T06:00:28;95023.94;;;-2.73;41.51
74921;BME280;63483;47.384;8.860;2023-04-10T06:02:54;95025.25;;;-2.66;41.41
74921;BME280;63483;47.384;8.860;2023-04-10T06:05:19;95023.13;;;-2.59;42.12
74921;BME280;63483;47.384;8.860;2023-04-10T06:07:45;95024.16;;;-2.62;43.38
74921;BME280;63483;47.384;8.860;2023-04-10T06:10:10;95021.41;;;-2.15;47.48
74921;BME280;63483;47.384;8.860;2023-04-10T06:12:35;95026.56;;;-2.15;55.45
74921;BME280;63483;47.384;8.860;2023-04-10T06:15:01;95025.25;;;-2.37;49.32
74921;BME280;63483;47.384;8.860;2023-04-10T06:17:26;95020.75;;;-2.62;48.16
74921;BME280;63483;47.384;8.860;2023-04-10T06:19:52;95024.56;;;-2.69;47.72
74921;BME280;63483;47.384;8.860;2023-04-10T06:22:18;95022.28;;;-2.88;47.85
74921;BME280;63483;47.384;8.860;2023-04-10T06:24:43;95025.53;;;-3.01;47.57
74921;BME280;63483;47.384;8.860;2023-04-10T06:27:08;95020.56;;;-3.04;47.96
74921;BME280;63483;47.384;8.860;2023-04-10T06:29:34;95020.88;;;-2.94;47.59
74921;BME280;63483;47.384;8.860;2023-04-10T06:32:00;95018.22;;;-2.92;47.18
74921;BME280;63483;47.384;8.860;2023-04-10T06:34:25;95014.41;;;-2.85;47.50
74921;BME280;63483;47.384;8.860;2023-04-10T06:36:51;95015.84;;;-2.81;47.09
74921;BME280;63483;47.384;8.860;2023-04-10T06:39:16;95012.03;;;-2.74;46.65
74921;BME280;63483;47.384;8.860;2023-04-10T06:41:42;95009.66;;;-2.63;47.67
74921;BME280;63483;47.384;8.860;2023-04-10T06:44:07;95020.22;;;-2.53;47.13
74921;BME280;63483;47.384;8.860;2023-04-10T06:46:32;95010.91;;;-2.39;47.09
74921;BME280;63483;47.384;8.860;2023-04-10T06:48:58;95009.41;;;-2.44;47.15
74921;BME280;63483;47.384;8.860;2023-04-10T06:51:23;95018.47;;;-2.52;46.98
74921;BME280;63483;47.384;8.860;2023-04-10T06:53:48;95019.88;;;-2.47;45.43
74921;BME280;63483;47.384;8.860;2023-04-10T06:56:14;95021.69;;;-2.49;44.84
74921;BME280;63483;47.384;8.860;2023-04-10T06:58:39;95011.91;;;-2.28;44.28
74921;BME280;63483;47.384;8.860;2023-04-10T07:01:05;95013.00;;;-2.32;44.60
74921;BME280;63483;47.384;8.860;2023-04-10T07:03:31;95009.88;;;-2.08;45.14
74921;BME280;63483;47.384;8.860;2023-04-10T07:05:56;95005.63;;;-1.80;46.58
74921;BME280;63483;47.384;8.860;2023-04-10T07:08:22;95000.59;;;-1.55;47.01
74921;BME280;63483;47.384;8.860;2023-04-10T07:10:47;95001.53;;;-1.15;50.34
74921;BME280;63483;47.384;8.860;2023-04-10T07:13:13;94998.94;;;-1.56;57.94
74921;BME280;63483;47.384;8.860;2023-04-10T07:15:38;94995.06;;;-1.76;51.36
74921;BME280;63483;47.384;8.860;2023-04-10T07:18:04;94991.88;;;-1.94;49.87
74921;BME280;63483;47.384;8.860;2023-04-10T07:20:30;94999.22;;;-2.02;49.83
74921;BME280;63483;47.384;8.860;2023-04-10T07:22:56;94992.69;;;-1.93;49.46
74921;BME280;63483;47.384;8.860;2023-04-10T07:25:21;94988.34;;;-1.78;49.67
74921;BME280;63483;47.384;8.860;2023-04-10T07:27:47;94990.72;;;-1.75;48.96
74921;BME280;63483;47.384;8.860;2023-04-10T07:30:12;94993.69;;;-1.81;48.37
74921;BME280;63483;47.384;8.860;2023-04-10T07:32:38;94994.53;;;-1.53;48.88
74921;BME280;63483;47.384;8.860;2023-04-10T07:35:04;94998.50;;;-1.35;48.77
74921;BME280;63483;47.384;8.860;2023-04-10T07:37:30;94989.63;;;-1.16;46.98
74921;BME280;63483;47.384;8.860;2023-04-10T07:39:56;94990.88;;;-1.37;47.68
74921;BME280;63483;47.384;8.860;2023-04-10T07:42:21;94988.59;;;-1.41;47.59
74921;BME280;63483;47.384;8.860;2023-04-10T07:44:47;95002.25;;;-0.99;50.33
74921;BME280;63483;47.384;8.860;2023-04-10T07:47:12;94986.94;;;-0.36;52.49
74921;BME280;63483;47.384;8.860;2023-04-10T07:49:38;94985.72;;;0.19;53.53
74921;BME280;63483;47.384;8.860;2023-04-10T07:52:03;94990.19;;;0.66;53.81
74921;BME280;63483;47.384;8.860;2023-04-10T07:54:31;94989.88;;;1.06;53.09
74921;BME280;63483;47.384;8.860;2023-04-10T07:56:58;94990.53;;;1.43;52.94
74921;BME280;63483;47.384;8.860;2023-04-10T07:59:23;94988.38;;;1.73;53.27
74921;BME280;63483;47.384;8.860;2023-04-10T08:01:48;94991.44;;;2.01;52.76
74921;BME280;63483;47.384;8.860;2023-04-10T08:04:14;94983.41;;;2.26;52.17
74921;BME280;63483;47.384;8.860;2023-04-10T08:06:39;94989.91;;;2.53;51.34
74921;BME280;63483;47.384;8.860;2023-04-10T08:09:05;94994.47;;;2.72;52.31
74921;BME280;63483;47.384;8.860;2023-04-10T08:11:33;94990.03;;;2.95;51.48
74921;BME280;63483;47.384;8.860;2023-04-10T08:14:00;94989.09;;;3.17;51.57
74921;BME280;63483;47.384;8.860;2023-04-10T08:16:27;94991.72;;;3.39;51.80
74921;BME280;63483;47.384;8.860;2023-04-10T08:18:53;94994.25;;;3.50;51.48
74921;BME280;63483;47.384;8.860;2023-04-10T08:21:23;95004.63;;;3.50;50.74
74921;BME280;63483;47.384;8.860;2023-04-10T08:23:50;94997.50;;;3.73;49.73
74921;BME280;63483;47.384;8.860;2023-04-10T08:26:15;94998.25;;;3.85;50.09
74921;BME280;63483;47.384;8.860;2023-04-10T08:28:41;95000.22;;;4.02;49.48
74921;BME280;63483;47.384;8.860;2023-04-10T08:31:11;94999.78;;;4.28;48.56
74921;BME280;63483;47.384;8.860;2023-04-10T08:33:37;95001.59;;;4.37;48.67
74921;BME280;63483;47.384;8.860;2023-04-10T08:36:02;94999.66;;;4.39;47.57
74921;BME280;63483;47.384;8.860;2023-04-10T08:38:28;95000.63;;;4.38;47.29
74921;BME280;63483;47.384;8.860;2023-04-10T08:40:54;94992.22;;;4.66;46.08
74921;BME280;63483;47.384;8.860;2023-04-10T08:43:19;94990.34;;;4.97;46.10
74921;BME280;63483;47.384;8.860;2023-04-10T08:45:45;94985.28;;;5.15;45.80
74921;BME280;63483;47.384;8.860;2023-04-10T08:48:11;94991.59;;;5.12;45.24
74921;BME280;63483;47.384;8.860;2023-04-10T08:50:41;94987.75;;;5.36;45.06
74921;BME280;63483;47.384;8.860;2023-04-10T08:53:10;94982.66;;;5.54;45.21
74921;BME280;63483;47.384;8.860;2023-04-10T08:55:36;94979.06;;;5.65;46.22
74921;BME280;63483;47.384;8.860;2023-04-10T08:58:02;94980.94;;;5.82;44.31
74921;BME280;63483;47.384;8.860;2023-04-10T09:00:29;94983.31;;;6.04;43.37
74921;BME280;63483;47.384;8.860;2023-04-10T09:02:58;94981.41;;;6.06;43.83
74921;BME280;63483;47.384;8.860;2023-04-10T09:05:28;94977.66;;;6.08;43.18
74921;BME280;63483;47.384;8.860;2023-04-10T09:07:53;94986.19;;;6.38;43.67
74921;BME280;63483;47.384;8.860;2023-04-10T09:10:19;94980.47;;;6.34;43.07
74921;BME280;63483;47.384;8.860;2023-04-10T09:12:46;94987.50;;;6.52;42.91
74921;BME280;63483;47.384;8.860;2023-04-10T09:15:12;94988.25;;;6.62;42.31
74921;BME280;63483;47.384;8.860;2023-04-10T09:17:54;94988.47;;;6.69;42.33
74921;BME280;63483;47.384;8.860;2023-04-10T09:20:21;94988.25;;;6.80;41.68
74921;BME280;63483;47.384;8.860;2023-04-10T09:22:47;94983.34;;;6.77;43.25
74921;BME280;63483;47.384;8.860;2023-04-10T09:25:28;94984.09;;;6.69;42.34
74921;BME280;63483;47.384;8.860;2023-04-10T09:28:08;94977.69;;;7.00;41.92
74921;BME280;63483;47.384;8.860;2023-04-10T09:30:38;94975.22;;;7.16;41.65
74921;BME280;63483;47.384;8.860;2023-04-10T09:33:24;94974.63;;;7.22;42.54
74921;BME280;63483;47.384;8.860;2023-04-10T09:35:56;94971.47;;;7.37;41.89
74921;BME280;63483;47.384;8.860;2023-04-10T09:38:22;94974.09;;;7.37;42.73
74921;BME280;63483;47.384;8.860;2023-04-10T09:40:48;94968.13;;;7.63;42.02
74921;BME280;63483;47.384;8.860;2023-04-10T09:45:48;94963.91;;;7.70;40.41
74921;BME280;63483;47.384;8.860;2023-04-10T09:48:14;94963.50;;;7.83;40.83
74921;BME280;63483;47.384;8.860;2023-04-10T09:50:40;94960.16;;;7.99;40.88
74921;BME280;63483;47.384;8.860;2023-04-10T09:53:11;94956.44;;;8.01;42.09
74921;BME280;63483;47.384;8.860;2023-04-10T09:55:36;94962.19;;;8.13;40.43
74921;BME280;63483;47.384;8.860;2023-04-10T09:58:03;94956.50;;;8.18;40.96
74921;BME280;63483;47.384;8.860;2023-04-10T10:00:29;94958.09;;;8.53;39.53
74921;BME280;63483;47.384;8.860;2023-04-10T10:02:56;94952.47;;;8.32;39.83
74921;BME280;63483;47.384;8.860;2023-04-10T10:05:23;94951.81;;;8.30;39.41
74921;BME280;63483;47.384;8.860;2023-04-10T10:07:54;94946.97;;;8.43;40.65
74921;BME280;63483;47.384;8.860;2023-04-10T10:10:20;94936.53;;;8.51;39.11
74921;BME280;63483;47.384;8.860;2023-04-10T10:12:56;94941.78;;;8.59;38.54
74921;BME280;63483;47.384;8.860;2023-04-10T10:15:26;94943.44;;;8.77;38.33
74921;BME280;63483;47.384;8.860;2023-04-10T10:18:02;94935.97;;;8.82;38.79
74921;BME280;63483;47.384;8.860;2023-04-10T10:20:31;94925.16;;;8.77;39.42
74921;BME280;63483;47.384;8.860;2023-04-10T10:22:57;94930.41;;;9.02;39.38
74921;BME280;63483;47.384;8.860;2023-04-10T10:25:23;94920.78;;;9.10;38.99
74921;BME280;63483;47.384;8.860;2023-04-10T10:27:52;94920.94;;;8.92;38.22
74921;BME280;63483;47.384;8.860;2023-04-10T10:30:18;94906.59;;;9.13;35.98
74921;BME280;63483;47.384;8.860;2023-04-10T10:32:45;94906.91;;;9.26;36.25
74921;BME280;63483;47.384;8.860;2023-04-10T10:35:11;94906.88;;;9.43;35.22
74921;BME280;63483;47.384;8.860;2023-04-10T10:37:38;94910.16;;;9.45;35.34
74921;BME280;63483;47.384;8.860;2023-04-10T10:40:16;94909.16;;;9.54;36.76
74921;BME280;63483;47.384;8.860;2023-04-10T10:45:16;94914.00;;;9.74;35.68
74921;BME280;63483;47.384;8.860;2023-04-10T10:47:45;94906.13;;;9.82;34.79
74921;BME280;63483;47.384;8.860;2023-04-10T10:50:11;94899.91;;;9.91;36.24
74921;BME280;63483;47.384;8.860;2023-04-10T10:52:46;94885.16;;;9.98;35.99
74921;BME280;63483;47.384;8.860;2023-04-10T10:58:08;94886.59;;;10.09;36.72
74921;BME280;63483;47.384;8.860;2023-04-10T11:05:53;94869.13;;;10.33;33.72
74921;BME280;63483;47.384;8.860;2023-04-10T11:08:39;94866.28;;;10.43;34.58
74921;BME280;63483;47.384;8.860;2023-04-10T11:11:09;94865.59;;;10.49;33.61
74921;BME280;63483;47.384;8.860;2023-04-10T11:13:39;94867.78;;;10.60;34.10
74921;BME280;63483;47.384;8.860;2023-04-10T11:16:07;94861.53;;;10.69;33.40
74921;BME280;63483;47.384;8.860;2023-04-10T11:29:01;94879.38;;;10.97;33.44
74921;BME280;63483;47.384;8.860;2023-04-10T11:31:27;94869.03;;;10.96;32.98
74921;BME280;63483;47.384;8.860;2023-04-10T11:36:22;94868.16;;;11.03;30.12
74921;BME280;63483;47.384;8.860;2023-04-10T11:39:03;94878.31;;;11.06;30.83
74921;BME280;63483;47.384;8.860;2023-04-10T11:41:41;94866.53;;;11.02;28.91
74921;BME280;63483;47.384;8.860;2023-04-10T11:44:09;94864.28;;;10.99;30.61
74921;BME280;63483;47.384;8.860;2023-04-10T11:46:42;94869.44;;;11.07;31.18
74921;BME280;63483;47.384;8.860;2023-04-10T11:49:08;94866.91;;;11.14;30.88
74921;BME280;63483;47.384;8.860;2023-04-10T11:51:35;94857.53;;;11.20;30.97
74921;BME280;63483;47.384;8.860;2023-04-10T11:54:13;94860.78;;;11.22;29.50
74921;BME280;63483;47.384;8.860;2023-04-10T11:56:42;94858.81;;;11.24;29.87
74921;BME280;63483;47.384;8.860;2023-04-10T11:59:08;94864.06;;;11.24;30.78
74921;BME280;63483;47.384;8.860;2023-04-10T12:01:39;94866.50;;;11.25;28.99
74921;BME280;63483;47.384;8.860;2023-04-10T12:04:15;94864.94;;;11.31;30.32
74921;BME280;63483;47.384;8.860;2023-04-10T12:06:43;94863.91;;;11.40;31.01
74921;BME280;63483;47.384;8.860;2023-04-10T12:09:13;94866.41;;;11.49;30.12
74921;BME280;63483;47.384;8.860;2023-04-10T12:11:47;94860.44;;;11.55;30.71
74921;BME280;63483;47.384;8.860;2023-04-10T12:14:14;94856.09;;;11.62;30.38
74921;BME280;63483;47.384;8.860;2023-04-10T12:16:39;94850.78;;;11.70;31.85
74921;BME280;63483;47.384;8.860;2023-04-10T12:19:05;94849.06;;;11.77;31.39
74921;BME280;63483;47.384;8.860;2023-04-10T12:21:30;94850.66;;;11.78;30.92
74921;BME280;63483;47.384;8.860;2023-04-10T12:23:56;94842.47;;;11.82;30.90
74921;BME280;63483;47.384;8.860;2023-04-10T12:26:22;94837.50;;;11.87;30.21
74921;BME280;63483;47.384;8.860;2023-04-10T12:28:54;94838.75;;;11.91;31.63
74921;BME280;63483;47.384;8.860;2023-04-10T12:31:29;94836.03;;;11.99;29.66
74921;BME280;63483;47.384;8.860;2023-04-10T12:33:55;94841.34;;;12.06;31.08
74921;BME280;63483;47.384;8.860;2023-04-10T12:36:23;94829.94;;;12.13;29.40
74921;BME280;63483;47.384;8.860;2023-04-10T12:38:49;94830.72;;;12.14;31.27
74921;BME280;63483;47.384;8.860;2023-04-10T12:41:21;94830.81;;;12.21;30.62
74921;BME280;63483;47.384;8.860;2023-04-10T12:43:47;94831.91;;;12.26;27.48
74921;BME280;63483;47.384;8.860;2023-04-10T12:46:22;94826.69;;;12.33;28.03
74921;BME280;63483;47.384;8.860;2023-04-10T12:48:48;94830.22;;;12.40;28.97
74921;BME280;63483;47.384;8.860;2023-04-10T12:51:13;94826.03;;;12.46;28.67
74921;BME280;63483;47.384;8.860;2023-04-10T12:53:42;94826.09;;;12.53;27.94
74921;BME280;63483;47.384;8.860;2023-04-10T12:56:09;94818.94;;;12.46;28.30
74921;BME280;63483;47.384;8.860;2023-04-10T12:58:36;94819.22;;;12.52;28.12
74921;BME280;63483;47.384;8.860;2023-04-10T13:01:06;94813.03;;;12.59;29.35
74921;BME280;63483;47.384;8.860;2023-04-10T13:03:33;94824.59;;;12.65;26.72
74921;BME280;63483;47.384;8.860;2023-04-10T13:06:00;94813.81;;;12.60;26.80
74921;BME280;63483;47.384;8.860;2023-04-10T13:08:25;94810.09;;;12.69;26.79
74921;BME280;63483;47.384;8.860;2023-04-10T13:10:51;94810.81;;;12.63;26.34
74921;BME280;63483;47.384;8.860;2023-04-10T13:13:16;94806.59;;;12.62;26.88
74921;BME280;63483;47.384;8.860;2023-04-10T13:15:42;94808.03;;;12.64;26.87
74921;BME280;63483;47.384;8.860;2023-04-10T13:18:08;94806.81;;;12.67;28.52
74921;BME280;63483;47.384;8.860;2023-04-10T13:20:36;94806.06;;;12.73;27.72
74921;BME280;63483;47.384;8.860;2023-04-10T13:23:02;94802.44;;;12.74;26.97
74921;BME280;63483;47.384;8.860;2023-04-10T13:25:30;94798.38;;;12.72;27.39
74921;BME280;63483;47.384;8.860;2023-04-10T13:27:57;94794.56;;;12.74;28.69
74921;BME280;63483;47.384;8.860;2023-04-10T13:30:22;94787.94;;;12.78;27.72
74921;BME280;63483;47.384;8.860;2023-04-10T13:32:48;94795.94;;;12.70;28.04
74921;BME280;63483;47.384;8.860;2023-04-10T13:35:13;94794.84;;;12.79;26.00
74921;BME280;63483;47.384;8.860;2023-04-10T13:37:39;94792.13;;;12.51;27.49
74921;BME280;63483;47.384;8.860;2023-04-10T13:40:05;94780.88;;;12.57;28.43